sensor_id;sensor_type;location;lat;lon;timestamp;P1;durP1;ratioP1;P2;durP2;ratioP2
39492;SDS011;25176;51.060;3.720;2023-03-01T00:01:24;6.60;;;4.63;;
39492;SDS011;25176;51.060;3.720;2023-03-01T00:03:51;7.50;;;4.50;;
39492;SDS011;25176;51.060;3.720;2023-03-01T00:06:18;5.65;;;3.78;;
39492;SDS011;25176;51.060;3.720;2023-03-01T00:08:44;4.70;;;3.90;;
39492;SDS011;25176;51.060;3.720;2023-03-01T00:11:11;5.07;;;3.63;;
39492;SDS011;25176;51.060;3.720;2023-03-01T00:13:39;5.68;;;4.30;;
39492;SDS011;25176;51.060;3.720;2023-03-01T00:16:07;5.70;;;4.18;;
39492;SDS011;25176;51.060;3.720;2023-03-01T00:18:34;4.90;;;4.40;;
39492;SDS011;25176;51.060;3.720;2023-03-01T00:21:00;5.10;;;4.32;;
39492;SDS011;25176;51.060;3.720;2023-03-01T00:23:26;5.20;;;4.55;;
39492;SDS011;25176;51.060;3.720;2023-03-01T00:25:52;4.90;;;4.40;;
39492;SDS011;25176;51.060;3.720;2023-03-01T00:28:18;5.13;;;4.53;;
39492;SDS011;25176;51.060;3.720;2023-03-01T00:30:44;4.80;;;4.25;;
39492;SDS011;25176;51.060;3.720;2023-03-01T00:33:10;5.43;;;4.35;;
39492;SDS011;25176;51.060;3.720;2023-03-01T00:35:36;5.72;;;4.63;;
39492;SDS011;25176;51.060;3.720;2023-03-01T00:38:01;5.25;;;4.47;;
39492;SDS011;25176;51.060;3.720;2023-03-01T00:40:28;5.47;;;4.38;;
39492;SDS011;25176;51.060;3.720;2023-03-01T00:42:54;5.10;;;4.60;;
39492;SDS011;25176;51.060;3.720;2023-03-01T00:45:20;9.65;;;5.53;;
39492;SDS011;25176;51.060;3.720;2023-03-01T00:47:46;9.18;;;5.80;;
39492;SDS011;25176;51.060;3.720;2023-03-01T00:50:13;6.93;;;5.30;;
39492;SDS011;25176;51.060;3.720;2023-03-01T00:52:38;9.25;;;5.68;;
39492;SDS011;25176;51.060;3.720;2023-03-01T00:55:04;8.45;;;6.63;;
39492;SDS011;25176;51.060;3.720;2023-03-01T00:57:30;6.93;;;6.20;;
39492;SDS011;25176;51.060;3.720;2023-03-01T00:59:57;10.02;;;6.43;;
39492;SDS011;25176;51.060;3.720;2023-03-01T01:02:22;9.23;;;6.13;;
39492;SDS011;25176;51.060;3.720;2023-03-01T01:04:48;8.30;;;6.10;;
39492;SDS011;25176;51.060;3.720;2023-03-01T01:07:14;8.70;;;6.70;;
39492;SDS011;25176;51.060;3.720;2023-03-01T01:09:40;8.65;;;7.30;;
39492;SDS011;25176;51.060;3.720;2023-03-01T07:01:31;15.05;;;10.75;;
39492;SDS011;25176;51.060;3.720;2023-03-01T07:03:56;12.55;;;9.38;;
39492;SDS011;25176;51.060;3.720;2023-03-01T07:06:23;12.18;;;9.43;;
39492;SDS011;25176;51.060;3.720;2023-03-01T07:08:49;13.10;;;9.35;;
39492;SDS011;25176;51.060;3.720;2023-03-01T07:11:14;14.15;;;9.27;;
39492;SDS011;25176;51.060;3.720;2023-03-01T07:13:40;12.82;;;8.68;;
39492;SDS011;25176;51.060;3.720;2023-03-01T07:16:07;12.23;;;8.60;;
39492;SDS011;25176;51.060;3.720;2023-03-01T07:18:33;12.55;;;8.68;;
39492;SDS011;25176;51.060;3.720;2023-03-01T07:21:04;12.38;;;8.52;;
39492;SDS011;25176;51.060;3.720;2023-03-01T07:23:33;12.40;;;8.93;;
39492;SDS011;25176;51.060;3.720;2023-03-01T07:26:00;10.02;;;8.65;;
39492;SDS011;25176;51.060;3.720;2023-03-01T07:28:28;12.55;;;9.45;;
39492;SDS011;25176;51.060;3.720;2023-03-01T07:30:54;16.80;;;9.43;;
39492;SDS011;25176;51.060;3.720;2023-03-01T07:33:20;15.65;;;11.15;;
39492;SDS011;25176;51.060;3.720;2023-03-01T07:38:58;13.20;;;9.82;;
39492;SDS011;25176;51.060;3.720;2023-03-01T07:41:27;15.75;;;9.73;;
39492;SDS011;25176;51.060;3.720;2023-03-01T08:13:39;10.20;;;8.70;;
39492;SDS011;25176;51.060;3.720;2023-03-01T08:16:10;11.20;;;8.38;;
39492;SDS011;25176;51.060;3.720;2023-03-01T08:18:38;12.88;;;7.90;;
39492;SDS011;25176;51.060;3.720;2023-03-01T08:21:09;13.00;;;8.13;;
39492;SDS011;25176;51.060;3.720;2023-03-01T08:23:36;11.20;;;7.50;;
39492;SDS011;25176;51.060;3.720;2023-03-01T08:26:10;10.05;;;7.43;;
39492;SDS011;25176;51.060;3.720;2023-03-01T08:28:37;10.05;;;7.38;;
39492;SDS011;25176;51.060;3.720;2023-03-01T08:31:12;9.48;;;7.57;;
39492;SDS011;25176;51.060;3.720;2023-03-01T08:33:39;8.75;;;7.15;;
39492;SDS011;25176;51.060;3.720;2023-03-01T08:36:05;9.88;;;7.38;;
39492;SDS011;25176;51.060;3.720;2023-03-01T08:38:34;11.48;;;7.47;;
39492;SDS011;25176;51.060;3.720;2023-03-01T08:41:01;12.95;;;8.10;;
39492;SDS011;25176;51.060;3.720;2023-03-01T08:43:27;14.98;;;7.32;;
39492;SDS011;25176;51.060;3.720;2023-03-01T08:49:17;8.77;;;5.78;;
39492;SDS011;25176;51.060;3.720;2023-03-01T08:51:44;10.23;;;6.25;;
39492;SDS011;25176;51.060;3.720;2023-03-01T08:54:14;9.65;;;5.70;;
39492;SDS011;25176;51.060;3.720;2023-03-01T08:56:43;9.18;;;6.50;;
39492;SDS011;25176;51.060;3.720;2023-03-01T08:59:10;7.93;;;6.30;;
39492;SDS011;25176;51.060;3.720;2023-03-01T09:01:37;6.72;;;5.38;;
39492;SDS011;25176;51.060;3.720;2023-03-01T09:04:03;7.90;;;5.88;;
39492;SDS011;25176;51.060;3.720;2023-03-01T09:06:30;6.90;;;5.60;;
39492;SDS011;25176;51.060;3.720;2023-03-01T09:08:58;6.88;;;6.05;;
39492;SDS011;25176;51.060;3.720;2023-03-01T09:11:25;6.82;;;6.10;;
39492;SDS011;25176;51.060;3.720;2023-03-01T09:13:56;6.65;;;5.65;;
39492;SDS011;25176;51.060;3.720;2023-03-01T09:16:23;8.50;;;5.65;;
39492;SDS011;25176;51.060;3.720;2023-03-01T09:18:50;7.95;;;6.85;;
39492;SDS011;25176;51.060;3.720;2023-03-01T09:21:21;9.20;;;6.43;;
39492;SDS011;25176;51.060;3.720;2023-03-01T09:26:15;11.13;;;5.90;;
39492;SDS011;25176;51.060;3.720;2023-03-01T09:28:47;9.70;;;6.32;;
39492;SDS011;25176;51.060;3.720;2023-03-01T09:31:14;7.18;;;5.63;;
39492;SDS011;25176;51.060;3.720;2023-03-01T09:37:03;6.60;;;5.80;;
39492;SDS011;25176;51.060;3.720;2023-03-01T09:39:29;6.95;;;5.75;;
39492;SDS011;25176;51.060;3.720;2023-03-01T09:42:02;6.75;;;5.47;;
39492;SDS011;25176;51.060;3.720;2023-03-01T09:47:23;7.13;;;5.85;;
39492;SDS011;25176;51.060;3.720;2023-03-01T09:52:41;8.50;;;5.82;;
39492;SDS011;25176;51.060;3.720;2023-03-01T09:55:45;8.07;;;5.75;;
39492;SDS011;25176;51.060;3.720;2023-03-01T09:58:54;13.55;;;5.28;;
39492;SDS011;25176;51.060;3.720;2023-03-01T10:01:44;7.10;;;5.63;;
39492;SDS011;25176;51.060;3.720;2023-03-01T10:04:58;10.13;;;6.28;;
39492;SDS011;25176;51.060;3.720;2023-03-01T10:07:38;7.15;;;5.75;;
39492;SDS011;25176;51.060;3.720;2023-03-01T10:10:28;7.68;;;6.40;;
39492;SDS011;25176;51.060;3.720;2023-03-01T10:13:00;11.05;;;6.55;;
39492;SDS011;25176;51.060;3.720;2023-03-01T10:15:41;7.10;;;5.65;;
39492;SDS011;25176;51.060;3.720;2023-03-01T10:18:12;7.95;;;6.13;;
39492;SDS011;25176;51.060;3.720;2023-03-01T10:20:54;8.00;;;5.55;;
39492;SDS011;25176;51.060;3.720;2023-03-01T10:31:24;6.47;;;5.10;;
39492;SDS011;25176;51.060;3.720;2023-03-01T10:37:34;7.13;;;5.75;;
39492;SDS011;25176;51.060;3.720;2023-03-01T10:40:10;6.25;;;5.18;;
39492;SDS011;25176;51.060;3.720;2023-03-01T10:42:48;9.65;;;6.18;;
39492;SDS011;25176;51.060;3.720;2023-03-01T10:45:37;8.10;;;6.10;;
39492;SDS011;25176;51.060;3.720;2023-03-01T10:48:25;11.60;;;5.97;;
39492;SDS011;25176;51.060;3.720;2023-03-01T10:53:35;7.10;;;5.63;;
39492;SDS011;25176;51.060;3.720;2023-03-01T10:56:14;9.38;;;5.70;;
39492;SDS011;25176;51.060;3.720;2023-03-01T10:59:03;7.85;;;5.50;;
39492;SDS011;25176;51.060;3.720;2023-03-01T11:01:32;6.78;;;5.75;;
39492;SDS011;25176;51.060;3.720;2023-03-01T11:04:09;6.47;;;5.47;;
39492;SDS011;25176;51.060;3.720;2023-03-01T11:06:38;7.90;;;5.07;;
39492;SDS011;25176;51.060;3.720;2023-03-01T11:09:15;9.73;;;5.90;;
39492;SDS011;25176;51.060;3.720;2023-03-01T11:11:43;7.28;;;5.43;;
39492;SDS011;25176;51.060;3.720;2023-03-01T11:14:45;8.30;;;5.65;;
39492;SDS011;25176;51.060;3.720;2023-03-01T11:17:10;7.38;;;5.40;;
39492;SDS011;25176;51.060;3.720;2023-03-01T11:22:34;6.75;;;5.40;;
39492;SDS011;25176;51.060;3.720;2023-03-01T11:25:00;6.45;;;5.13;;
39492;SDS011;25176;51.060;3.720;2023-03-01T11:27:28;7.65;;;5.65;;
39492;SDS011;25176;51.060;3.720;2023-03-01T11:30:03;7.25;;;5.82;;
39492;SDS011;25176;51.060;3.720;2023-03-01T11:32:59;6.97;;;5.50;;
39492;SDS011;25176;51.060;3.720;2023-03-01T11:35:41;7.72;;;5.00;;
39492;SDS011;25176;51.060;3.720;2023-03-01T11:38:21;6.72;;;4.80;;
39492;SDS011;25176;51.060;3.720;2023-03-01T11:43:27;6.15;;;4.35;;
39492;SDS011;25176;51.060;3.720;2023-03-01T11:51:48;6.55;;;4.63;;
39492;SDS011;25176;51.060;3.720;2023-03-01T11:57:07;7.80;;;4.82;;
39492;SDS011;25176;51.060;3.720;2023-03-01T12:02:58;6.63;;;4.60;;
39492;SDS011;25176;51.060;3.720;2023-03-01T12:26:30;8.13;;;4.93;;
39492;SDS011;25176;51.060;3.720;2023-03-01T12:32:09;6.35;;;4.30;;
39492;SDS011;25176;51.060;3.720;2023-03-01T12:34:53;6.82;;;4.50;;
39492;SDS011;25176;51.060;3.720;2023-03-01T12:37:33;4.95;;;3.63;;
39492;SDS011;25176;51.060;3.720;2023-03-01T12:43:41;7.18;;;4.53;;
39492;SDS011;25176;51.060;3.720;2023-03-01T12:49:57;5.60;;;4.70;;
39492;SDS011;25176;51.060;3.720;2023-03-01T12:52:32;7.57;;;4.00;;
39492;SDS011;25176;51.060;3.720;2023-03-01T12:55:06;9.70;;;5.07;;
39492;SDS011;25176;51.060;3.720;2023-03-01T12:58:00;8.52;;;4.88;;
39492;SDS011;25176;51.060;3.720;2023-03-01T13:00:27;6.93;;;4.60;;
39492;SDS011;25176;51.060;3.720;2023-03-01T13:03:12;7.45;;;5.15;;
39492;SDS011;25176;51.060;3.720;2023-03-01T13:08:29;6.10;;;4.00;;
39492;SDS011;25176;51.060;3.720;2023-03-01T13:11:29;5.60;;;3.92;;
39492;SDS011;25176;51.060;3.720;2023-03-01T13:14:23;6.53;;;4.93;;
39492;SDS011;25176;51.060;3.720;2023-03-01T13:16:45;13.52;;;5.57;;
39492;SDS011;25176;51.060;3.720;2023-03-01T13:19:26;7.30;;;4.93;;
39492;SDS011;25176;51.060;3.720;2023-03-01T13:21:57;7.10;;;4.38;;
39492;SDS011;25176;51.060;3.720;2023-03-01T13:24:34;7.60;;;4.95;;
39492;SDS011;25176;51.060;3.720;2023-03-01T13:29:30;9.23;;;5.45;;
39492;SDS011;25176;51.060;3.720;2023-03-01T13:32:34;6.53;;;5.10;;
39492;SDS011;25176;51.060;3.720;2023-03-01T13:37:39;6.03;;;4.63;;
39492;SDS011;25176;51.060;3.720;2023-03-01T13:42:50;8.75;;;5.53;;
39492;SDS011;25176;51.060;3.720;2023-03-01T13:45:20;6.85;;;4.63;;
39492;SDS011;25176;51.060;3.720;2023-03-01T13:47:52;6.75;;;5.10;;
39492;SDS011;25176;51.060;3.720;2023-03-01T13:50:33;9.15;;;5.55;;
39492;SDS011;25176;51.060;3.720;2023-03-01T13:53:09;6.60;;;4.63;;
39492;SDS011;25176;51.060;3.720;2023-03-01T13:55:43;6.87;;;4.87;;
39492;SDS011;25176;51.060;3.720;2023-03-01T13:58:33;6.70;;;4.78;;
39492;SDS011;25176;51.060;3.720;2023-03-01T14:00:59;6.00;;;4.93;;
39492;SDS011;25176;51.060;3.720;2023-03-01T14:03:27;8.85;;;5.68;;
39492;SDS011;25176;51.060;3.720;2023-03-01T14:06:01;8.20;;;5.03;;
39492;SDS011;25176;51.060;3.720;2023-03-01T14:08:31;13.13;;;7.38;;
39492;SDS011;25176;51.060;3.720;2023-03-01T14:16:46;10.43;;;5.47;;
39492;SDS011;25176;51.060;3.720;2023-03-01T14:19:27;8.75;;;5.28;;
39492;SDS011;25176;51.060;3.720;2023-03-01T14:21:58;7.25;;;5.03;;
39492;SDS011;25176;51.060;3.720;2023-03-01T14:24:39;9.32;;;5.53;;
39492;SDS011;25176;51.060;3.720;2023-03-01T14:27:14;7.43;;;5.50;;
39492;SDS011;25176;51.060;3.720;2023-03-01T14:29:40;10.80;;;5.07;;
39492;SDS011;25176;51.060;3.720;2023-03-01T14:32:25;8.13;;;5.55;;
39492;SDS011;25176;51.060;3.720;2023-03-01T14:34:52;6.85;;;5.00;;
39492;SDS011;25176;51.060;3.720;2023-03-01T14:37:19;8.30;;;5.22;;
39492;SDS011;25176;51.060;3.720;2023-03-01T14:39:50;7.05;;;5.40;;
39492;SDS011;25176;51.060;3.720;2023-03-01T14:42:17;9.20;;;5.65;;
39492;SDS011;25176;51.060;3.720;2023-03-01T14:44:45;6.55;;;4.43;;
39492;SDS011;25176;51.060;3.720;2023-03-01T14:47:15;7.40;;;5.03;;
39492;SDS011;25176;51.060;3.720;2023-03-01T14:49:50;7.72;;;4.80;;
39492;SDS011;25176;51.060;3.720;2023-03-01T14:52:23;10.63;;;5.45;;
39492;SDS011;25176;51.060;3.720;2023-03-01T14:54:55;7.63;;;5.20;;
39492;SDS011;25176;51.060;3.720;2023-03-01T14:57:22;7.38;;;5.20;;
39492;SDS011;25176;51.060;3.720;2023-03-01T14:59:50;7.10;;;4.45;;
39492;SDS011;25176;51.060;3.720;2023-03-01T15:02:19;7.40;;;4.85;;
39492;SDS011;25176;51.060;3.720;2023-03-01T15:04:49;6.45;;;4.70;;
39492;SDS011;25176;51.060;3.720;2023-03-01T15:07:34;10.02;;;5.13;;
39492;SDS011;25176;51.060;3.720;2023-03-01T15:10:04;7.97;;;5.25;;
39492;SDS011;25176;51.060;3.720;2023-03-01T15:12:34;8.30;;;5.28;;
39492;SDS011;25176;51.060;3.720;2023-03-01T15:15:01;7.35;;;5.15;;
39492;SDS011;25176;51.060;3.720;2023-03-01T15:17:43;6.85;;;5.03;;
39492;SDS011;25176;51.060;3.720;2023-03-01T15:20:15;9.77;;;5.25;;
39492;SDS011;25176;51.060;3.720;2023-03-01T15:22:46;7.57;;;5.50;;
39492;SDS011;25176;51.060;3.720;2023-03-01T15:25:20;10.60;;;5.03;;
39492;SDS011;25176;51.060;3.720;2023-03-01T15:27:48;7.22;;;5.45;;
39492;SDS011;25176;51.060;3.720;2023-03-01T15:30:17;6.90;;;5.22;;
39492;SDS011;25176;51.060;3.720;2023-03-01T15:32:44;8.35;;;5.43;;
39492;SDS011;25176;51.060;3.720;2023-03-01T15:38:25;7.32;;;5.03;;
39492;SDS011;25176;51.060;3.720;2023-03-01T15:40:54;7.97;;;5.50;;
39492;SDS011;25176;51.060;3.720;2023-03-01T15:43:39;6.95;;;5.30;;
39492;SDS011;25176;51.060;3.720;2023-03-01T15:46:51;11.27;;;5.43;;
39492;SDS011;25176;51.060;3.720;2023-03-01T15:49:00;9.68;;;5.75;;
39492;SDS011;25176;51.060;3.720;2023-03-01T15:51:37;7.07;;;5.63;;
39492;SDS011;25176;51.060;3.720;2023-03-01T15:54:06;9.52;;;6.28;;
39492;SDS011;25176;51.060;3.720;2023-03-01T15:56:45;7.47;;;5.82;;
39492;SDS011;25176;51.060;3.720;2023-03-01T15:59:11;7.43;;;5.70;;
39492;SDS011;25176;51.060;3.720;2023-03-01T16:01:39;7.20;;;5.97;;
39492;SDS011;25176;51.060;3.720;2023-03-01T16:04:09;10.27;;;5.43;;
39492;SDS011;25176;51.060;3.720;2023-03-01T16:06:38;12.20;;;5.60;;
39492;SDS011;25176;51.060;3.720;2023-03-01T16:09:04;8.05;;;5.40;;
39492;SDS011;25176;51.060;3.720;2023-03-01T16:11:30;7.18;;;5.38;;
39492;SDS011;25176;51.060;3.720;2023-03-01T16:13:57;10.50;;;6.45;;
39492;SDS011;25176;51.060;3.720;2023-03-01T16:16:23;8.07;;;5.90;;
39492;SDS011;25176;51.060;3.720;2023-03-01T16:18:48;9.75;;;6.72;;
39492;SDS011;25176;51.060;3.720;2023-03-01T16:21:23;7.18;;;6.43;;
39492;SDS011;25176;51.060;3.720;2023-03-01T16:23:50;8.40;;;6.28;;
39492;SDS011;25176;51.060;3.720;2023-03-01T16:26:16;10.20;;;6.55;;
39492;SDS011;25176;51.060;3.720;2023-03-01T16:28:43;8.10;;;6.10;;
39492;SDS011;25176;51.060;3.720;2023-03-01T16:31:09;11.52;;;7.07;;
39492;SDS011;25176;51.060;3.720;2023-03-01T16:33:36;8.18;;;6.18;;
39492;SDS011;25176;51.060;3.720;2023-03-01T16:36:09;6.90;;;5.45;;
39492;SDS011;25176;51.060;3.720;2023-03-01T16:38:36;8.82;;;6.30;;
39492;SDS011;25176;51.060;3.720;2023-03-01T16:41:02;6.97;;;6.18;;
39492;SDS011;25176;51.060;3.720;2023-03-01T16:43:28;6.88;;;5.93;;
39492;SDS011;25176;51.060;3.720;2023-03-01T16:45:55;7.97;;;5.68;;
39492;SDS011;25176;51.060;3.720;2023-03-01T16:48:21;8.10;;;5.78;;
39492;SDS011;25176;51.060;3.720;2023-03-01T16:50:54;8.57;;;5.93;;
39492;SDS011;25176;51.060;3.720;2023-03-01T16:53:21;8.90;;;6.13;;
39492;SDS011;25176;51.060;3.720;2023-03-01T16:55:52;8.90;;;6.53;;
39492;SDS011;25176;51.060;3.720;2023-03-01T16:58:22;9.52;;;6.57;;
39492;SDS011;25176;51.060;3.720;2023-03-01T17:00:49;7.72;;;6.45;;
39492;SDS011;25176;51.060;3.720;2023-03-01T17:03:24;10.95;;;6.78;;
39492;SDS011;25176;51.060;3.720;2023-03-01T17:05:51;9.95;;;6.50;;
39492;SDS011;25176;51.060;3.720;2023-03-01T17:08:17;9.65;;;6.75;;
39492;SDS011;25176;51.060;3.720;2023-03-01T17:10:43;7.88;;;6.20;;
39492;SDS011;25176;51.060;3.720;2023-03-01T17:13:09;8.48;;;6.03;;
39492;SDS011;25176;51.060;3.720;2023-03-01T17:15:37;9.45;;;6.78;;
39492;SDS011;25176;51.060;3.720;2023-03-01T17:18:05;8.93;;;6.63;;
39492;SDS011;25176;51.060;3.720;2023-03-01T17:20:31;8.15;;;7.03;;
39492;SDS011;25176;51.060;3.720;2023-03-01T17:22:56;9.77;;;6.10;;
39492;SDS011;25176;51.060;3.720;2023-03-01T17:25:22;7.70;;;6.22;;
39492;SDS011;25176;51.060;3.720;2023-03-01T17:27:48;8.35;;;6.50;;
39492;SDS011;25176;51.060;3.720;2023-03-01T17:30:13;7.88;;;6.13;;
39492;SDS011;25176;51.060;3.720;2023-03-01T17:32:40;8.75;;;6.43;;
39492;SDS011;25176;51.060;3.720;2023-03-01T17:35:06;10.18;;;6.95;;
39492;SDS011;25176;51.060;3.720;2023-03-01T17:37:32;11.18;;;6.35;;
39492;SDS011;25176;51.060;3.720;2023-03-01T17:39:58;9.77;;;6.78;;
39492;SDS011;25176;51.060;3.720;2023-03-01T17:42:24;10.32;;;6.35;;
39492;SDS011;25176;51.060;3.720;2023-03-01T17:44:49;9.20;;;6.38;;
39492;SDS011;25176;51.060;3.720;2023-03-01T17:47:15;7.90;;;6.03;;
39492;SDS011;25176;51.060;3.720;2023-03-01T17:49:40;7.40;;;5.90;;
39492;SDS011;25176;51.060;3.720;2023-03-01T17:52:06;7.82;;;6.30;;
39492;SDS011;25176;51.060;3.720;2023-03-01T17:54:32;9.18;;;6.05;;
39492;SDS011;25176;51.060;3.720;2023-03-01T17:56:57;9.90;;;6.15;;
39492;SDS011;25176;51.060;3.720;2023-03-01T17:59:23;8.05;;;6.53;;
39492;SDS011;25176;51.060;3.720;2023-03-01T18:01:55;7.85;;;6.00;;
39492;SDS011;25176;51.060;3.720;2023-03-01T18:04:21;8.52;;;6.10;;
39492;SDS011;25176;51.060;3.720;2023-03-01T18:06:47;8.85;;;6.55;;
39492;SDS011;25176;51.060;3.720;2023-03-01T18:09:12;10.50;;;6.85;;
39492;SDS011;25176;51.060;3.720;2023-03-01T18:11:38;7.28;;;6.10;;
39492;SDS011;25176;51.060;3.720;2023-03-01T18:14:05;8.38;;;6.65;;
39492;SDS011;25176;51.060;3.720;2023-03-01T18:16:31;10.50;;;6.38;;
39492;SDS011;25176;51.060;3.720;2023-03-01T18:18:58;10.50;;;6.45;;
39492;SDS011;25176;51.060;3.720;2023-03-01T18:21:25;8.23;;;6.00;;
39492;SDS011;25176;51.060;3.720;2023-03-01T18:23:51;9.52;;;6.57;;
39492;SDS011;25176;51.060;3.720;2023-03-01T18:26:17;11.20;;;6.55;;
39492;SDS011;25176;51.060;3.720;2023-03-01T18:28:46;8.30;;;6.47;;
39492;SDS011;25176;51.060;3.720;2023-03-01T18:31:15;7.40;;;6.15;;
39492;SDS011;25176;51.060;3.720;2023-03-01T18:33:43;8.30;;;6.05;;
39492;SDS011;25176;51.060;3.720;2023-03-01T18:36:17;9.00;;;6.55;;
39492;SDS011;25176;51.060;3.720;2023-03-01T18:38:44;9.18;;;6.80;;
39492;SDS011;25176;51.060;3.720;2023-03-01T18:41:10;11.13;;;6.07;;
39492;SDS011;25176;51.060;3.720;2023-03-01T18:43:36;9.35;;;6.40;;
39492;SDS011;25176;51.060;3.720;2023-03-01T18:48:54;8.18;;;6.55;;
39492;SDS011;25176;51.060;3.720;2023-03-01T18:51:21;10.60;;;7.07;;
39492;SDS011;25176;51.060;3.720;2023-03-01T18:53:51;10.70;;;8.07;;
39492;SDS011;25176;51.060;3.720;2023-03-01T18:56:22;13.30;;;9.03;;
39492;SDS011;25176;51.060;3.720;2023-03-01T18:58:49;13.73;;;8.15;;
39492;SDS011;25176;51.060;3.720;2023-03-01T19:01:18;14.18;;;7.97;;
39492;SDS011;25176;51.060;3.720;2023-03-01T19:03:46;10.57;;;7.03;;
39492;SDS011;25176;51.060;3.720;2023-03-01T19:06:12;11.07;;;7.68;;
39492;SDS011;25176;51.060;3.720;2023-03-01T19:08:38;10.13;;;7.93;;
39492;SDS011;25176;51.060;3.720;2023-03-01T19:11:06;9.32;;;6.78;;
39492;SDS011;25176;51.060;3.720;2023-03-01T19:13:33;9.48;;;7.43;;
39492;SDS011;25176;51.060;3.720;2023-03-01T19:16:02;11.95;;;7.90;;
39492;SDS011;25176;51.060;3.720;2023-03-01T19:18:30;9.82;;;7.85;;
39492;SDS011;25176;51.060;3.720;2023-03-01T19:20:56;10.85;;;7.20;;
39492;SDS011;25176;51.060;3.720;2023-03-01T19:23:26;8.65;;;6.68;;
39492;SDS011;25176;51.060;3.720;2023-03-01T19:25:59;10.75;;;7.50;;
39492;SDS011;25176;51.060;3.720;2023-03-01T19:28:26;10.25;;;7.18;;
39492;SDS011;25176;51.060;3.720;2023-03-01T19:30:56;9.05;;;7.18;;
39492;SDS011;25176;51.060;3.720;2023-03-01T19:33:25;12.35;;;7.70;;
39492;SDS011;25176;51.060;3.720;2023-03-01T19:35:51;9.63;;;6.38;;
39492;SDS011;25176;51.060;3.720;2023-03-01T19:38:17;10.35;;;6.97;;
39492;SDS011;25176;51.060;3.720;2023-03-01T19:40:43;10.48;;;7.75;;
39492;SDS011;25176;51.060;3.720;2023-03-01T19:43:08;10.65;;;7.97;;
39492;SDS011;25176;51.060;3.720;2023-03-01T19:45:34;10.63;;;7.43;;
39492;SDS011;25176;51.060;3.720;2023-03-01T19:47:59;12.60;;;7.32;;
39492;SDS011;25176;51.060;3.720;2023-03-01T19:50:25;10.52;;;7.47;;
39492;SDS011;25176;51.060;3.720;2023-03-01T19:52:50;10.88;;;7.72;;
39492;SDS011;25176;51.060;3.720;2023-03-01T19:55:16;10.20;;;8.57;;
39492;SDS011;25176;51.060;3.720;2023-03-01T19:57:42;10.68;;;7.65;;
39492;SDS011;25176;51.060;3.720;2023-03-01T20:00:07;13.18;;;7.85;;
39492;SDS011;25176;51.060;3.720;2023-03-01T20:02:34;14.15;;;8.35;;
39492;SDS011;25176;51.060;3.720;2023-03-01T20:04:59;12.93;;;8.30;;
39492;SDS011;25176;51.060;3.720;2023-03-01T20:07:25;11.68;;;7.93;;
39492;SDS011;25176;51.060;3.720;2023-03-01T20:09:50;14.15;;;8.02;;
39492;SDS011;25176;51.060;3.720;2023-03-01T20:12:16;9.60;;;7.72;;
39492;SDS011;25176;51.060;3.720;2023-03-01T20:14:43;11.20;;;7.72;;
39492;SDS011;25176;51.060;3.720;2023-03-01T20:17:09;10.48;;;7.43;;
39492;SDS011;25176;51.060;3.720;2023-03-01T20:19:35;10.52;;;8.07;;
39492;SDS011;25176;51.060;3.720;2023-03-01T20:22:01;13.43;;;8.65;;
39492;SDS011;25176;51.060;3.720;2023-03-01T20:24:27;14.55;;;8.32;;
39492;SDS011;25176;51.060;3.720;2023-03-01T20:26:56;11.00;;;8.35;;
39492;SDS011;25176;51.060;3.720;2023-03-01T20:29:25;11.82;;;8.60;;
39492;SDS011;25176;51.060;3.720;2023-03-01T20:31:50;9.93;;;8.00;;
39492;SDS011;25176;51.060;3.720;2023-03-01T20:34:16;11.43;;;7.80;;
39492;SDS011;25176;51.060;3.720;2023-03-01T20:36:42;15.43;;;8.57;;
39492;SDS011;25176;51.060;3.720;2023-03-01T20:39:08;12.45;;;7.80;;
39492;SDS011;25176;51.060;3.720;2023-03-01T20:41:35;10.10;;;7.45;;
39492;SDS011;25176;51.060;3.720;2023-03-01T20:44:01;10.25;;;8.07;;
39492;SDS011;25176;51.060;3.720;2023-03-01T20:46:30;16.40;;;8.90;;
39492;SDS011;25176;51.060;3.720;2023-03-01T20:48:57;11.85;;;8.80;;
39492;SDS011;25176;51.060;3.720;2023-03-01T20:51:24;10.15;;;7.95;;
39492;SDS011;25176;51.060;3.720;2023-03-01T20:53:50;12.25;;;8.60;;
39492;SDS011;25176;51.060;3.720;2023-03-01T20:56:16;11.38;;;8.45;;
39492;SDS011;25176;51.060;3.720;2023-03-01T20:58:43;11.18;;;8.32;;
39492;SDS011;25176;51.060;3.720;2023-03-01T21:01:09;11.80;;;8.15;;
39492;SDS011;25176;51.060;3.720;2023-03-01T21:03:38;11.20;;;8.27;;
39492;SDS011;25176;51.060;3.720;2023-03-01T21:06:04;9.98;;;7.97;;
39492;SDS011;25176;51.060;3.720;2023-03-01T21:08:30;11.35;;;8.30;;
